• Join FlightAware (Why Join?)
  • Login
  • US Flag 
12:57PM EDT


 

Airport Tracker/Info


-or-


 

Live Flight TrackerFlight Track Log ✈ JBU953 ✈ 23-Apr-2012 ✈ KBOS - KMCO

Flight Track Log - Related Links

Times and Time Zones

All times are in EDT time to prevent confusion due to time zone crossing. See the JBU953 flight status page for this flight to view local times or setup timezone preferences in your user account.

Time Position Orientation Groundspeed Altitude Reporting Facility
EDT Latitude Longitude Course Direction KTS MPH feet Rate Location/Type
01:40PM 42.3474 -71.0385 127° Southeast  Level FlightAware Approximate
01:41PM 42.3167 -70.9833 90° East 179 206 2,300  Level Boston TRACON
01:42PM 42.3167 -70.9000 77° East 273 314 4,800 2,760 Climbing Boston TRACON
01:43PM 42.3333 -70.8000 118° Southeast 291 335 7,900 3,000 Climbing Boston TRACON
01:44PM 42.3000 -70.7167 193° South 267 307 10,800 2,460 Climbing Boston TRACON
01:45PM 42.2086 -70.7444 249° West 232 267 13,900 1,800 Climbing Boston Center
01:46PM 42.1747 -70.8656 252° West 232 267 15,100 1,380 Climbing Boston Center
01:47PM 42.1453 -70.9869 255° West 314 361 16,700 2,040 Climbing Boston Center
01:48PM 42.1175 -71.1219 249° West 366 421 19,300 2,220 Climbing Boston Center
01:49PM 42.0794 -71.2569 246° West 384 442 21,200 1,980 Climbing Boston Center
01:50PM 42.0350 -71.3892 246° West 390 449 23,300 1,980 Climbing Boston Center
01:51PM 41.9944 -71.5128 245° Southwest 390 449 25,200 1,680 Climbing Boston Center
01:52PM 41.9475 -71.6503 246° West 378 435 26,700 1,260 Climbing Boston Center
01:53PM 41.9106 -71.7594 246° West 383 441 27,700 1,020 Climbing Boston Center
01:54PM 41.8614 -71.9050 246° West 383 441 28,800 1,200 Climbing Boston Center
01:55PM 41.8161 -72.0417 246° West 394 453 30,100 1,140 Climbing Boston Center
01:56PM 41.7686 -72.1839 245° Southwest 406 467 31,200 1,080 Climbing Boston Center
01:57PM 41.7208 -72.3206 245° Southwest 406 467 32,300 1,020 Climbing Boston Center
01:58PM 41.6731 -72.4594 244° Southwest 411 473 33,300 840 Climbing Boston Center
01:59PM 41.6231 -72.5983 245° Southwest 416 479 34,000 300 Climbing Boston Center
02:00PM 41.5747 -72.7397 248° West 416 479 34,000  Level Boston Center
02:01PM 41.5306 -72.8836 244° Southwest 422 486 34,000  Level Boston Center
02:02PM 41.4797 -73.0247 244° Southwest 422 486 34,000  Level Boston Center
02:03PM 41.4269 -73.1708 245° Southwest 427 491 34,000  Level Boston Center
02:05PM 41.3336 -73.4319 244° Southwest 428 493 34,000  Level New York Center
02:06PM 41.2825 -73.5736 234° Southwest 428 493 34,000 300 Level New York Center
02:07PM 41.2172 -73.6922 232° Southwest 418 481 34,700 720 Climbing New York Center
02:08PM 41.1475 -73.8103 232° Southwest 413 475 35,500 600 Climbing New York Center
02:09PM 41.0800 -73.9228 231° Southwest 413 475 36,000 240 Climbing New York Center
02:10PM 41.0103 -74.0350 233° Southwest 403 464 36,000  Level New York Center
02:11PM 40.9444 -74.1500 231° Southwest 403 464 36,000  Level New York Center
02:12PM 40.8681 -74.2753 232° Southwest 403 464 36,000 -60 Level New York Center
02:13PM 40.8022 -74.3869 231° Southwest 403 464 35,900 -60 Descending New York Center
02:14PM 40.7342 -74.4983 231° Southwest 403 464 35,900  Level New York Center
02:15PM 40.6636 -74.6122 232° Southwest 403 464 35,900  Level New York Center
02:16PM 40.5953 -74.7258 228° Southwest 403 464 36,000  Climbing New York Center
02:17PM 40.5208 -74.8333 226° Southwest 403 464 36,000  Level New York Center
02:18PM 40.4486 -74.9328 227° Southwest 416 479 36,000  Level New York Center
02:19PM 40.3631 -75.0531 227° Southwest 416 479 36,100  Climbing New York Center
02:20PM 40.2950 -75.1494 227° Southwest 416 479 36,000 -60 Descending New York Center
02:21PM 40.2200 -75.2561 227° Southwest 411 473 36,000  Level New York Center
02:22PM 40.1386 -75.3703 226° Southwest 406 467 36,000 -60 Level New York Center
02:23PM 40.0703 -75.4636 227° Southwest 406 467 35,900  Descending New York Center
02:24PM 39.9972 -75.5669 226° Southwest 406 467 36,000  Climbing New York Center
02:25PM 39.9222 -75.6675 232° Southwest 401 461 35,900 -60 Descending New York Center
02:26PM 39.8528 -75.7817 229° Southwest 396 456 35,900  Level New York Center
02:27PM 39.7769 -75.8950 230° Southwest 418 481 36,000  Climbing New York Center
02:28PM 39.6964 -76.0214 232° Southwest 418 481 36,000  Level New York Center
02:30PM 39.5744 -76.2214 230° Southwest 421 484 36,000  Level Washington Center
02:31PM 39.5008 -76.3339 230° Southwest 421 484 36,000 -60 Level Washington Center
02:32PM 39.4292 -76.4458 231° Southwest 421 484 35,900  Descending Washington Center
02:33PM 39.3533 -76.5658 229° Southwest 426 490 36,000  Climbing Washington Center
02:34PM 39.2794 -76.6775 231° Southwest 426 490 36,000  Level Washington Center
02:35PM 39.2075 -76.7917 230° Southwest 426 490 36,000  Level Washington Center
02:36PM 39.1333 -76.9056 230° Southwest 426 490 36,000  Level Washington Center
02:37PM 39.0569 -77.0217 222° Southwest 426 490 36,000  Level Washington Center
02:38PM 38.9725 -77.1189 221° Southwest 419 482 36,000  Level Washington Center
02:39PM 38.8836 -77.2183 219° Southwest 419 482 36,000  Level Washington Center
02:40PM 38.7947 -77.3122 220° Southwest 419 482 36,000  Level Washington Center
02:41PM 38.7058 -77.4086 220° Southwest 419 482 36,000  Level Washington Center
02:42PM 38.6167 -77.5047 221° Southwest 419 482 36,000  Level Washington Center
02:43PM 38.5211 -77.6111 220° Southwest 419 482 36,000  Level Washington Center
02:44PM 38.4319 -77.7067 220° Southwest 419 482 36,000  Level Washington Center
02:45PM 38.3428 -77.8022 220° Southwest 419 482 36,000  Level Washington Center
02:46PM 38.2533 -77.8975 220° Southwest 419 482 36,000  Level Washington Center
02:47PM 38.1661 -77.9897 221° Southwest 419 482 36,000  Level Washington Center
02:48PM 38.0764 -78.0872 220° Southwest 419 482 36,000  Level Washington Center
02:49PM 37.9975 -78.1714 218° Southwest 414 476 36,000  Level Washington Center
02:50PM 37.9036 -78.2631 217° Southwest 419 482 36,000  Level Washington Center
02:51PM 37.8100 -78.3517 217° Southwest 424 488 36,000  Level Washington Center
02:52PM 37.7161 -78.4403 217° Southwest 429 494 36,000  Level Washington Center
02:53PM 37.6200 -78.5308 216° Southwest 434 499 36,000  Level Washington Center
02:54PM 37.5239 -78.6189 217° Southwest 434 499 36,000  Level Washington Center
02:55PM 37.4169 -78.7219 216° Southwest 439 505 36,000  Level Washington Center
02:56PM 37.3208 -78.8094 216° Southwest 439 505 36,000  Level Washington Center
02:57PM 37.2225 -78.8992 217° Southwest 445 512 36,000  Level Washington Center
02:58PM 37.1261 -78.9914 216° Southwest 440 506 36,000  Level Washington Center
02:59PM 37.0275 -79.0806 216° Southwest 440 506 36,000  Level Washington Center
03:00PM 36.9308 -79.1697 217° Southwest 440 506 36,000  Level Washington Center
03:01PM 36.8428 -79.2514 216° Southwest 440 506 36,000  Level Washington Center
03:02PM 36.7464 -79.3375 217° Southwest 440 506 36,000  Level Washington Center
03:03PM 36.6494 -79.4286 216° Southwest 440 506 36,000  Level Washington Center
03:04PM 36.5528 -79.5169 215° Southwest 440 506 36,000  Level Washington Center
03:05PM 36.4417 -79.6153 216° Southwest 426 490 36,000  Level Atlanta Center
03:06PM 36.3467 -79.7006 217° Southwest 421 484 36,000  Level Atlanta Center
03:07PM 36.2517 -79.7881 216° Southwest 421 484 36,000  Level Atlanta Center
03:08PM 36.1464 -79.8836 208° Southwest 427 491 36,000  Level Atlanta Center
03:09PM 36.0403 -79.9533 193° South 427 491 36,000  Level Atlanta Center
03:10PM 35.9225 -79.9872 196° South 432 497 36,000  Level Atlanta Center
03:11PM 35.8072 -80.0289 194° South 432 497 36,000  Level Atlanta Center
03:12PM 35.7019 -80.0622 197° South 432 497 36,000  Level Atlanta Center
03:13PM 35.5761 -80.1092 194° South 432 497 36,000  Level Atlanta Center
03:14PM 35.4583 -80.1453 195° South 432 497 36,000  Level Atlanta Center
03:15PM 35.3447 -80.1839 195° South 432 497 36,000  Level Atlanta Center
03:16PM 35.2292 -80.2222 195° South 432 497 36,000  Level Atlanta Center
03:17PM 35.1156 -80.2606 195° South 432 497 36,000  Level Atlanta Center
03:20PM 34.8247 -80.3561 194° South 433 498 36,000  Level Jacksonville Center
03:21PM 34.7108 -80.3897 194° South 428 493 36,000  Level Jacksonville Center
03:22PM 34.5947 -80.4258 196° South 428 493 36,000 -60 Level Jacksonville Center
03:23PM 34.4806 -80.4644 195° South 428 493 35,900 -60 Descending Jacksonville Center
03:24PM 34.3667 -80.5003 196° South 433 498 35,900  Level Jacksonville Center
03:25PM 34.2506 -80.5411 195° South 433 498 36,000  Climbing Jacksonville Center
03:26PM 34.1344 -80.5794 194° South 433 498 36,000  Level Jacksonville Center
03:27PM 34.0183 -80.6150 194° South 433 498 36,000  Level Jacksonville Center
03:28PM 33.9042 -80.6506 195° South 433 498 36,000  Level Jacksonville Center
03:29PM 33.7881 -80.6886 195° South 433 498 36,000  Level Jacksonville Center
03:30PM 33.6717 -80.7264 194° South 433 498 36,000  Level Jacksonville Center
03:31PM 33.5556 -80.7617 195° South 433 498 36,000  Level Jacksonville Center
03:32PM 33.4392 -80.7992 195° South 433 498 36,000  Level Jacksonville Center
03:33PM 33.3250 -80.8367 193° South 433 498 36,000  Level Jacksonville Center
03:34PM 33.2108 -80.8692 196° South 433 498 36,000  Level Jacksonville Center
03:35PM 33.0967 -80.9089 191° South 428 493 36,000  Level Jacksonville Center
03:37PM 32.8742 -80.9608 181° South 433 498 36,000 -60 Level Jacksonville Center
03:38PM 32.7553 -80.9633 182° South 428 493 35,900 -60 Descending Jacksonville Center
03:39PM 32.6342 -80.9683 182° South 428 493 35,900  Level Jacksonville Center
03:40PM 32.5153 -80.9733 183° South 428 493 35,900  Level Jacksonville Center
03:41PM 32.3839 -80.9811 182° South 428 493 36,000  Climbing Jacksonville Center
03:42PM 32.2650 -80.9861 182° South 423 487 36,000  Level Jacksonville Center
03:43PM 32.1564 -80.9908 182° South 436 502 36,000  Level Jacksonville Center
03:44PM 32.0228 -80.9961 182° South 441 507 36,100  Climbing Jacksonville Center
03:45PM 31.9061 -81.0008 182° South 436 502 36,000 -60 Descending Jacksonville Center
03:46PM 31.8017 -81.0053 183° South 425 489 36,000  Level Jacksonville Center
03:47PM 31.6744 -81.0128 182° South 418 481 36,000  Level Jacksonville Center
03:48PM 31.5597 -81.0175 182° South 418 481 36,000  Level Jacksonville Center
03:49PM 31.4575 -81.0222 181° South 418 481 36,000 -240 Level Jacksonville Center
03:50PM 31.3386 -81.0244 181° South 426 490 35,600 -600 Descending Jacksonville Center
03:51PM 31.2236 -81.0269 183° South 426 490 34,800 -840 Descending Jacksonville Center
03:52PM 31.1089 -81.0339 184° South 421 484 34,000 -420 Descending Jacksonville Center
03:53PM 30.9922 -81.0436 182° South 421 484 34,000  Level Jacksonville Center
03:54PM 30.8794 -81.0481 181° South 421 484 34,000 -60 Level Jacksonville Center
03:55PM 30.7628 -81.0503 183° South 421 484 33,900 -60 Descending Jacksonville Center
03:56PM 30.6458 -81.0575 182° South 421 484 33,900 -300 Level Jacksonville Center
03:57PM 30.5311 -81.0622 182° South 421 484 33,400 -720 Descending Jacksonville Center
03:58PM 30.4183 -81.0667 182° South 416 479 32,500 -960 Descending Jacksonville Center
03:59PM 30.3058 -81.0711 183° South 416 479 31,500 -1,020 Descending Jacksonville Center
04:00PM 30.1911 -81.0781 182° South 416 479 30,500 -1,020 Descending Jacksonville Center
04:01PM 30.0783 -81.0828 182° South 416 479 29,500 -960 Descending Jacksonville Center
04:02PM 29.9697 -81.0872 182° South 405 466 28,600 -900 Descending Jacksonville Center
04:03PM 29.8656 -81.0914 183° South 394 453 27,700 -960 Descending Jacksonville Center
04:04PM 29.7611 -81.0983 182° South 383 441 26,700 -1,320 Descending Jacksonville Center
04:05PM 29.6444 -81.1028 182° South 383 441 25,100 -1,920 Descending Jacksonville Center
04:06PM 29.5358 -81.1072 181° South 388 447 22,900 -2,160 Descending Jacksonville Center
04:07PM 29.4336 -81.1089 182° South 383 441 20,800 -2,160 Descending Jacksonville Center
04:08PM 29.3292 -81.1133 179° South 378 435 18,600 -2,220 Descending Jacksonville Center
04:09PM 29.2250 -81.1103 175° South 378 435 16,400 -2,160 Descending Jacksonville Center
04:10PM 29.1225 -81.1003 175° South 378 435 14,300 -2,100 Descending Jacksonville Center
04:11PM 29.0181 -81.0903 175° South 383 441 12,200 -1,320 Descending Jacksonville Center
04:12PM 28.9197 -81.0803 194° South 376 433 11,700 -1,020 Descending Jacksonville Center
04:12PM 28.8500 -81.1000 192° South 328 377 10,500 -1,320 Descending Orlando TRACON
04:13PM 28.7833 -81.1167 192° South 288 331 9,500 -840 Descending Orlando TRACON
04:14PM 28.7167 -81.1333 192° South 267 307 9,000 -300 Descending Orlando TRACON
04:15PM 28.6500 -81.1500 204° Southwest 239 275 9,000  Level Orlando TRACON
04:16PM 28.5833 -81.1833 180° South 240 276 9,000 -120 Level Orlando TRACON
04:17PM 28.5000 -81.1833 180° South 246 283 8,800 -780 Descending Orlando TRACON
04:18PM 28.4500 -81.1833 180° South 251 289 7,600 -1,380 Descending Orlando TRACON
04:19PM 28.3833 -81.1833 180° South 242 278 6,300 -1,500 Descending Orlando TRACON
04:20PM 28.3167 -81.1833 221° Southwest 233 268 4,700 -1,620 Descending Orlando TRACON
04:21PM 28.2667 -81.2333 307° West 200 230 3,000 -1,320 Descending Orlando TRACON
04:22PM 28.3000 -81.2833 319° Northwest 199 229 2,100 -780 Descending Orlando TRACON
04:23PM 28.3333 -81.3167 360° North 173 199 1,600 -660 Descending Orlando TRACON
04:24PM 28.3833 -81.3167 360° North 150 173 800 -720 Descending Orlando TRACON